sensor_id;sensor_type;location;lat;lon;timestamp;pressure;altitude;pressure_sealevel;temperature;humidity
56518;BME280;42419;48.760;2.322;2023-05-02T00:00:17;101432.16;;;23.97;41.28
56518;BME280;42419;48.760;2.322;2023-05-02T00:02:43;101434.72;;;24.00;41.34
56518;BME280;42419;48.760;2.322;2023-05-02T00:05:08;101432.88;;;24.01;41.19
56518;BME280;42419;48.760;2.322;2023-05-02T00:07:34;101431.91;;;24.03;40.96
56518;BME280;42419;48.760;2.322;2023-05-02T00:10:00;101438.22;;;24.02;41.15
56518;BME280;42419;48.760;2.322;2023-05-02T00:12:27;101435.47;;;24.04;40.87
56518;BME280;42419;48.760;2.322;2023-05-02T00:14:52;101431.00;;;24.03;40.80
56518;BME280;42419;48.760;2.322;2023-05-02T00:17:18;101436.41;;;24.03;41.07
56518;BME280;42419;48.760;2.322;2023-05-02T00:19:44;101439.91;;;24.05;41.29
56518;BME280;42419;48.760;2.322;2023-05-02T00:22:10;101437.34;;;24.02;40.83
56518;BME280;42419;48.760;2.322;2023-05-02T00:24:35;101433.75;;;24.01;41.00
56518;BME280;42419;48.760;2.322;2023-05-02T00:27:01;101427.59;;;23.99;40.69
56518;BME280;42419;48.760;2.322;2023-05-02T00:29:26;101437.34;;;24.02;40.95
56518;BME280;42419;48.760;2.322;2023-05-02T00:31:51;101443.53;;;24.04;40.52
56518;BME280;42419;48.760;2.322;2023-05-02T00:34:17;101431.06;;;24.01;40.43
56518;BME280;42419;48.760;2.322;2023-05-02T00:36:42;101424.81;;;24.01;40.74
56518;BME280;42419;48.760;2.322;2023-05-02T00:39:07;101422.94;;;24.03;40.30
56518;BME280;42419;48.760;2.322;2023-05-02T00:41:33;101434.38;;;24.08;40.60
56518;BME280;42419;48.760;2.322;2023-05-02T00:43:58;101429.88;;;24.08;40.26
56518;BME280;42419;48.760;2.322;2023-05-02T00:46:24;101441.63;;;24.06;39.92
56518;BME280;42419;48.760;2.322;2023-05-02T00:48:49;101421.41;;;23.97;40.11
56518;BME280;42419;48.760;2.322;2023-05-02T00:51:15;101437.00;;;24.09;40.26
56518;BME280;42419;48.760;2.322;2023-05-02T00:53:40;101432.47;;;24.10;40.27
56518;BME280;42419;48.760;2.322;2023-05-02T00:56:07;101432.41;;;24.11;40.25
56518;BME280;42419;48.760;2.322;2023-05-02T00:58:33;101435.09;;;24.11;40.31
56518;BME280;42419;48.760;2.322;2023-05-02T01:06:33;101436.81;;;24.14;40.12
56518;BME280;42419;48.760;2.322;2023-05-02T01:11:47;101438.53;;;24.15;40.56
56518;BME280;42419;48.760;2.322;2023-05-02T01:14:16;101435.72;;;24.18;40.26
56518;BME280;42419;48.760;2.322;2023-05-02T01:16:42;101385.84;;;23.91;40.09
56518;BME280;42419;48.760;2.322;2023-05-02T01:19:14;101435.56;;;24.21;40.41
56518;BME280;42419;48.760;2.322;2023-05-02T01:21:41;101437.38;;;24.21;39.81
56518;BME280;42419;48.760;2.322;2023-05-02T01:24:18;101440.94;;;24.21;40.18
56518;BME280;42419;48.760;2.322;2023-05-02T01:27:09;101438.47;;;24.16;39.86
56518;BME280;42419;48.760;2.322;2023-05-02T01:29:38;101438.25;;;24.21;39.92
56518;BME280;42419;48.760;2.322;2023-05-02T01:32:05;101428.84;;;24.11;39.58
56518;BME280;42419;48.760;2.322;2023-05-02T01:34:32;101432.16;;;24.17;39.81
56518;BME280;42419;48.760;2.322;2023-05-02T01:36:59;101439.03;;;24.23;39.08
56518;BME280;42419;48.760;2.322;2023-05-02T01:39:26;101435.41;;;24.24;39.16
56518;BME280;42419;48.760;2.322;2023-05-02T01:41:54;101440.69;;;24.27;39.44
56518;BME280;42419;48.760;2.322;2023-05-02T01:44:21;101440.78;;;24.24;39.51
56518;BME280;42419;48.760;2.322;2023-05-02T01:46:48;101442.41;;;24.28;39.76
56518;BME280;42419;48.760;2.322;2023-05-02T01:49:15;101428.44;;;24.20;39.71
56518;BME280;42419;48.760;2.322;2023-05-02T01:51:46;101445.91;;;24.30;39.44
56518;BME280;42419;48.760;2.322;2023-05-02T01:54:12;101444.16;;;24.29;39.20
56518;BME280;42419;48.760;2.322;2023-05-02T01:56:39;101444.97;;;24.31;39.50
56518;BME280;42419;48.760;2.322;2023-05-02T01:59:07;101425.59;;;24.23;39.31
56518;BME280;42419;48.760;2.322;2023-05-02T02:01:38;101435.00;;;24.33;39.62
56518;BME280;42419;48.760;2.322;2023-05-02T02:04:05;101432.44;;;24.30;39.55
56518;BME280;42419;48.760;2.322;2023-05-02T02:06:31;101429.69;;;24.32;39.11
56518;BME280;42419;48.760;2.322;2023-05-02T02:08:57;101423.50;;;24.30;39.06
56518;BME280;42419;48.760;2.322;2023-05-02T02:14:41;101438.56;;;24.34;38.72
56518;BME280;42419;48.760;2.322;2023-05-02T02:17:13;101415.78;;;24.22;39.49
56518;BME280;42419;48.760;2.322;2023-05-02T02:19:41;101442.13;;;24.34;38.97
56518;BME280;42419;48.760;2.322;2023-05-02T02:22:07;101437.63;;;24.35;39.23
56518;BME280;42419;48.760;2.322;2023-05-02T02:24:35;101448.38;;;24.35;39.01
56518;BME280;42419;48.760;2.322;2023-05-02T02:27:02;101452.75;;;24.37;38.83
56518;BME280;42419;48.760;2.322;2023-05-02T02:29:27;101458.94;;;24.39;38.74
56518;BME280;42419;48.760;2.322;2023-05-02T02:31:53;101457.13;;;24.40;38.62
56518;BME280;42419;48.760;2.322;2023-05-02T02:34:19;101433.44;;;24.28;38.85
56518;BME280;42419;48.760;2.322;2023-05-02T02:37:14;101455.22;;;24.42;39.26
56518;BME280;42419;48.760;2.322;2023-05-02T02:40:03;101456.19;;;24.41;39.14
56518;BME280;42419;48.760;2.322;2023-05-02T02:45:29;101471.38;;;24.42;38.65
56518;BME280;42419;48.760;2.322;2023-05-02T02:50:49;101459.72;;;24.41;38.60
56518;BME280;42419;48.760;2.322;2023-05-02T02:53:25;101460.59;;;24.42;38.96
56518;BME280;42419;48.760;2.322;2023-05-02T02:56:01;101468.78;;;24.40;38.11
56518;BME280;42419;48.760;2.322;2023-05-02T03:01:21;101472.25;;;24.42;37.97
56518;BME280;42419;48.760;2.322;2023-05-02T03:03:47;101465.88;;;24.45;38.51
56518;BME280;42419;48.760;2.322;2023-05-02T03:06:14;101469.41;;;24.45;38.26
56518;BME280;42419;48.760;2.322;2023-05-02T03:08:41;101464.03;;;24.45;38.33
56518;BME280;42419;48.760;2.322;2023-05-02T03:11:07;101468.47;;;24.46;37.94
56518;BME280;42419;48.760;2.322;2023-05-02T03:13:33;101458.63;;;24.45;38.00
56518;BME280;42419;48.760;2.322;2023-05-02T03:16:26;101455.88;;;24.47;38.33
56518;BME280;42419;48.760;2.322;2023-05-02T03:18:53;101451.81;;;24.38;37.98
56518;BME280;42419;48.760;2.322;2023-05-02T03:21:19;101461.31;;;24.45;37.64
56518;BME280;42419;48.760;2.322;2023-05-02T03:23:44;101469.34;;;24.47;38.10
56518;BME280;42419;48.760;2.322;2023-05-02T03:26:10;101473.78;;;24.49;38.23
56518;BME280;42419;48.760;2.322;2023-05-02T03:28:35;101473.78;;;24.49;37.89
56518;BME280;42419;48.760;2.322;2023-05-02T03:31:00;101474.63;;;24.50;38.18
56518;BME280;42419;48.760;2.322;2023-05-02T03:33:26;101474.56;;;24.51;38.14
56518;BME280;42419;48.760;2.322;2023-05-02T03:35:51;101471.06;;;24.49;38.00
56518;BME280;42419;48.760;2.322;2023-05-02T03:38:16;101478.13;;;24.52;37.83
56518;BME280;42419;48.760;2.322;2023-05-02T03:40:42;101465.69;;;24.49;37.63
56518;BME280;42419;48.760;2.322;2023-05-02T03:43:07;101476.16;;;24.55;37.75
56518;BME280;42419;48.760;2.322;2023-05-02T03:45:33;101475.38;;;24.53;38.09
56518;BME280;42419;48.760;2.322;2023-05-02T03:47:59;101475.22;;;24.56;38.13
56518;BME280;42419;48.760;2.322;2023-05-02T03:50:24;101475.16;;;24.58;37.07
56518;BME280;42419;48.760;2.322;2023-05-02T03:52:50;101478.72;;;24.58;37.29
56518;BME280;42419;48.760;2.322;2023-05-02T03:55:15;101479.56;;;24.59;37.58
56518;BME280;42419;48.760;2.322;2023-05-02T03:57:40;101476.09;;;24.57;37.76
56518;BME280;42419;48.760;2.322;2023-05-02T04:00:06;101453.19;;;24.47;37.55
56518;BME280;42419;48.760;2.322;2023-05-02T04:02:32;101468.00;;;24.57;37.57
56518;BME280;42419;48.760;2.322;2023-05-02T04:04:57;101467.13;;;24.56;37.02
56518;BME280;42419;48.760;2.322;2023-05-02T04:07:22;101477.69;;;24.61;37.15
56518;BME280;42419;48.760;2.322;2023-05-02T04:09:49;101476.66;;;24.64;37.22
56518;BME280;42419;48.760;2.322;2023-05-02T04:12:15;101479.34;;;24.64;37.33
56518;BME280;42419;48.760;2.322;2023-05-02T04:14:40;101471.44;;;24.60;37.24
56518;BME280;42419;48.760;2.322;2023-05-02T04:17:05;101478.41;;;24.65;37.13
56518;BME280;42419;48.760;2.322;2023-05-02T04:19:31;101477.53;;;24.64;37.33
56518;BME280;42419;48.760;2.322;2023-05-02T04:21:56;101481.84;;;24.68;37.15
56518;BME280;42419;48.760;2.322;2023-05-02T04:24:22;101487.22;;;24.68;37.40
56518;BME280;42419;48.760;2.322;2023-05-02T04:26:47;101493.41;;;24.70;36.67
56518;BME280;42419;48.760;2.322;2023-05-02T04:29:13;101496.91;;;24.72;36.83
56518;BME280;42419;48.760;2.322;2023-05-02T04:31:38;101495.09;;;24.73;37.07
56518;BME280;42419;48.760;2.322;2023-05-02T04:34:05;101504.91;;;24.74;37.00
56518;BME280;42419;48.760;2.322;2023-05-02T04:36:31;101502.06;;;24.77;36.91
56518;BME280;42419;48.760;2.322;2023-05-02T04:38:56;101509.31;;;24.76;36.36
56518;BME280;42419;48.760;2.322;2023-05-02T04:41:22;101509.22;;;24.78;36.46
56518;BME280;42419;48.760;2.322;2023-05-02T04:43:47;101516.28;;;24.80;36.30
56518;BME280;42419;48.760;2.322;2023-05-02T04:46:13;101517.22;;;24.79;36.90
56518;BME280;42419;48.760;2.322;2023-05-02T04:48:38;101519.94;;;24.79;36.50
56518;BME280;42419;48.760;2.322;2023-05-02T04:51:07;101504.91;;;24.74;36.40
56518;BME280;42419;48.760;2.322;2023-05-02T04:53:33;101509.44;;;24.73;35.93
56518;BME280;42419;48.760;2.322;2023-05-02T04:55:59;101514.47;;;24.81;36.38
56518;BME280;42419;48.760;2.322;2023-05-02T04:58:24;101522.56;;;24.81;36.08
56518;BME280;42419;48.760;2.322;2023-05-02T05:00:50;101528.56;;;24.86;37.70
56518;BME280;42419;48.760;2.322;2023-05-02T05:03:15;101523.19;;;24.86;37.73
56518;BME280;42419;48.760;2.322;2023-05-02T05:05:40;101532.16;;;24.86;37.28
56518;BME280;42419;48.760;2.322;2023-05-02T05:08:06;101530.34;;;24.87;38.24
56518;BME280;42419;48.760;2.322;2023-05-02T05:10:31;101532.03;;;24.89;38.21
56518;BME280;42419;48.760;2.322;2023-05-02T05:12:57;101543.59;;;24.91;38.26
56518;BME280;42419;48.760;2.322;2023-05-02T05:15:22;101549.78;;;24.93;38.79
56518;BME280;42419;48.760;2.322;2023-05-02T05:17:50;101540.44;;;24.82;38.42
56518;BME280;42419;48.760;2.322;2023-05-02T05:20:15;101560.19;;;24.82;38.53
56518;BME280;42419;48.760;2.322;2023-05-02T05:22:41;101555.94;;;24.77;38.27
56518;BME280;42419;48.760;2.322;2023-05-02T05:25:10;101548.63;;;24.80;40.22
56518;BME280;42419;48.760;2.322;2023-05-02T05:27:36;101556.28;;;24.89;39.37
56518;BME280;42419;48.760;2.322;2023-05-02T05:30:05;101561.72;;;24.88;38.81
56518;BME280;42419;48.760;2.322;2023-05-02T05:32:34;101575.03;;;24.91;38.94
56518;BME280;42419;48.760;2.322;2023-05-02T05:34:59;101567.94;;;24.90;38.58
56518;BME280;42419;48.760;2.322;2023-05-02T05:37:25;101558.41;;;24.81;38.35
56518;BME280;42419;48.760;2.322;2023-05-02T05:39:50;101578.03;;;24.85;38.03
56518;BME280;42419;48.760;2.322;2023-05-02T05:42:16;101578.91;;;24.85;37.45
56518;BME280;42419;48.760;2.322;2023-05-02T05:44:41;101559.66;;;24.74;37.97
56518;BME280;42419;48.760;2.322;2023-05-02T05:47:06;101567.53;;;24.79;37.87
56518;BME280;42419;48.760;2.322;2023-05-02T05:49:32;101585.16;;;24.86;38.35
56518;BME280;42419;48.760;2.322;2023-05-02T05:51:57;101555.56;;;24.66;39.52
56518;BME280;42419;48.760;2.322;2023-05-02T05:54:22;101580.19;;;24.77;39.04
56518;BME280;42419;48.760;2.322;2023-05-02T05:56:48;101610.38;;;24.85;38.29
56518;BME280;42419;48.760;2.322;2023-05-02T05:59:13;101603.28;;;24.82;38.88
56518;BME280;42419;48.760;2.322;2023-05-02T06:01:39;101522.59;;;24.40;38.52
56518;BME280;42419;48.760;2.322;2023-05-02T06:04:05;101605.84;;;24.85;38.32
56518;BME280;42419;48.760;2.322;2023-05-02T06:06:31;101610.38;;;24.85;37.95
56518;BME280;42419;48.760;2.322;2023-05-02T06:08:57;101585.56;;;24.77;38.04
56518;BME280;42419;48.760;2.322;2023-05-02T06:11:22;101614.78;;;24.86;37.88
56518;BME280;42419;48.760;2.322;2023-05-02T06:13:51;101596.50;;;24.74;37.99
56518;BME280;42419;48.760;2.322;2023-05-02T06:16:17;101616.75;;;24.82;38.28
56518;BME280;42419;48.760;2.322;2023-05-02T06:18:43;101611.66;;;24.76;38.16
56518;BME280;42419;48.760;2.322;2023-05-02T06:21:08;101619.44;;;24.82;37.92
56518;BME280;42419;48.760;2.322;2023-05-02T06:23:34;101605.41;;;24.76;38.16
56518;BME280;42419;48.760;2.322;2023-05-02T06:26:00;101571.41;;;24.53;38.03
56518;BME280;42419;48.760;2.322;2023-05-02T06:28:26;101604.72;;;24.71;36.88
56518;BME280;42419;48.760;2.322;2023-05-02T06:31:02;101628.47;;;24.81;37.43
56518;BME280;42419;48.760;2.322;2023-05-02T06:33:28;101628.66;;;24.77;37.05
56518;BME280;42419;48.760;2.322;2023-05-02T06:35:54;101631.25;;;24.80;37.88
56518;BME280;42419;48.760;2.322;2023-05-02T06:38:19;101627.88;;;24.75;37.20
56518;BME280;42419;48.760;2.322;2023-05-02T06:40:45;101635.69;;;24.81;36.66
56518;BME280;42419;48.760;2.322;2023-05-02T06:43:11;101617.38;;;24.69;37.01
56518;BME280;42419;48.760;2.322;2023-05-02T06:45:36;101637.72;;;24.76;36.52
56518;BME280;42419;48.760;2.322;2023-05-02T06:48:02;101644.03;;;24.75;36.50
56518;BME280;42419;48.760;2.322;2023-05-02T06:50:28;101573.19;;;24.32;36.20
56518;BME280;42419;48.760;2.322;2023-05-02T06:52:53;101629.31;;;24.63;36.38
56518;BME280;42419;48.760;2.322;2023-05-02T06:55:19;101653.19;;;24.71;36.41
56518;BME280;42419;48.760;2.322;2023-05-02T06:57:44;101647.81;;;24.71;36.45
56518;BME280;42419;48.760;2.322;2023-05-02T07:00:10;101637.19;;;24.68;36.16
56518;BME280;42419;48.760;2.322;2023-05-02T07:02:36;101644.44;;;24.66;36.12
56518;BME280;42419;48.760;2.322;2023-05-02T07:05:01;101649.84;;;24.66;36.79
56518;BME280;42419;48.760;2.322;2023-05-02T07:07:27;101645.31;;;24.66;35.99
56518;BME280;42419;48.760;2.322;2023-05-02T07:09:52;101651.59;;;24.67;36.01
56518;BME280;42419;48.760;2.322;2023-05-02T07:12:17;101647.41;;;24.59;36.03
56518;BME280;42419;48.760;2.322;2023-05-02T07:14:43;101663.50;;;24.61;36.04
56518;BME280;42419;48.760;2.322;2023-05-02T07:17:10;101652.69;;;24.63;34.73
56518;BME280;42419;48.760;2.322;2023-05-02T07:19:36;101650.84;;;24.63;34.17
56518;BME280;42419;48.760;2.322;2023-05-02T07:22:01;101652.72;;;24.61;35.26
56518;BME280;42419;48.760;2.322;2023-05-02T07:24:27;101652.00;;;24.57;35.75
56518;BME280;42419;48.760;2.322;2023-05-02T07:26:52;101645.00;;;24.53;35.19
56518;BME280;42419;48.760;2.322;2023-05-02T07:29:17;101641.44;;;24.53;35.56
56518;BME280;42419;48.760;2.322;2023-05-02T07:31:43;101646.06;;;24.49;35.42
56518;BME280;42419;48.760;2.322;2023-05-02T07:34:08;101640.75;;;24.48;35.28
56518;BME280;42419;48.760;2.322;2023-05-02T07:36:33;101643.47;;;24.46;35.34
56518;BME280;42419;48.760;2.322;2023-05-02T07:38:58;101656.94;;;24.46;35.67
56518;BME280;42419;48.760;2.322;2023-05-02T07:41:24;101639.44;;;24.36;35.47
56518;BME280;42419;48.760;2.322;2023-05-02T07:43:49;101660.63;;;24.44;35.67
56518;BME280;42419;48.760;2.322;2023-05-02T07:46:14;101662.59;;;24.40;35.62
56518;BME280;42419;48.760;2.322;2023-05-02T07:48:40;101640.63;;;24.29;35.86
56518;BME280;42419;48.760;2.322;2023-05-02T07:51:07;101647.81;;;24.29;36.11
56518;BME280;42419;48.760;2.322;2023-05-02T07:53:33;101659.22;;;24.35;35.65
56518;BME280;42419;48.760;2.322;2023-05-02T07:55:58;101644.41;;;24.25;35.89
56518;BME280;42419;48.760;2.322;2023-05-02T07:58:24;101662.84;;;24.34;36.42
56518;BME280;42419;48.760;2.322;2023-05-02T08:00:49;101662.84;;;24.34;35.43
56518;BME280;42419;48.760;2.322;2023-05-02T08:03:14;101664.72;;;24.32;35.78
56518;BME280;42419;48.760;2.322;2023-05-02T08:05:40;101660.22;;;24.33;35.59
56518;BME280;42419;48.760;2.322;2023-05-02T08:08:05;101667.50;;;24.31;35.65
56518;BME280;42419;48.760;2.322;2023-05-02T08:10:31;101668.44;;;24.30;35.80
56518;BME280;42419;48.760;2.322;2023-05-02T08:12:56;101671.16;;;24.28;35.66
56518;BME280;42419;48.760;2.322;2023-05-02T08:15:22;101661.63;;;24.21;35.80
56518;BME280;42419;48.760;2.322;2023-05-02T08:17:47;101678.50;;;24.25;35.66
56518;BME280;42419;48.760;2.322;2023-05-02T08:20:12;101671.56;;;24.19;36.06
56518;BME280;42419;48.760;2.322;2023-05-02T08:22:38;101674.19;;;24.21;35.81
56518;BME280;42419;48.760;2.322;2023-05-02T08:25:03;101664.75;;;24.10;35.82
56518;BME280;42419;48.760;2.322;2023-05-02T08:27:28;101678.84;;;24.17;36.28
56518;BME280;42419;48.760;2.322;2023-05-02T08:29:54;101664.16;;;24.04;35.84
56518;BME280;42419;48.760;2.322;2023-05-02T08:32:19;101684.41;;;24.12;36.09
56518;BME280;42419;48.760;2.322;2023-05-02T08:34:46;101669.63;;;24.01;36.25
56518;BME280;42419;48.760;2.322;2023-05-02T08:37:12;101682.69;;;24.10;35.98
56518;BME280;42419;48.760;2.322;2023-05-02T08:39:37;101661.69;;;23.98;36.02
56518;BME280;42419;48.760;2.322;2023-05-02T08:42:06;101673.19;;;24.01;36.51
56518;BME280;42419;48.760;2.322;2023-05-02T08:44:32;101689.16;;;24.06;35.34
56518;BME280;42419;48.760;2.322;2023-05-02T08:46:59;101696.34;;;24.05;36.17
56518;BME280;42419;48.760;2.322;2023-05-02T08:49:25;101703.56;;;24.05;35.68
56518;BME280;42419;48.760;2.322;2023-05-02T08:51:52;101693.94;;;23.99;36.05
56518;BME280;42419;48.760;2.322;2023-05-02T08:54:19;101697.41;;;24.01;36.09
56518;BME280;42419;48.760;2.322;2023-05-02T08:56:46;101685.28;;;23.91;35.69
56518;BME280;42419;48.760;2.322;2023-05-02T08:59:11;101696.63;;;23.99;35.28
56518;BME280;42419;48.760;2.322;2023-05-02T09:01:38;101696.66;;;23.98;35.90
56518;BME280;42419;48.760;2.322;2023-05-02T09:04:05;101698.38;;;24.00;35.88
56518;BME280;42419;48.760;2.322;2023-05-02T09:06:31;101703.75;;;24.00;35.86
56518;BME280;42419;48.760;2.322;2023-05-02T09:08:58;101699.22;;;24.01;36.60
56518;BME280;42419;48.760;2.322;2023-05-02T09:11:24;101704.69;;;23.99;36.55
56518;BME280;42419;48.760;2.322;2023-05-02T09:13:50;101699.22;;;24.01;36.86
56518;BME280;42419;48.760;2.322;2023-05-02T09:16:21;101632.81;;;23.58;37.06
56518;BME280;42419;48.760;2.322;2023-05-02T09:18:51;101709.19;;;23.99;37.33
56518;BME280;42419;48.760;2.322;2023-05-02T09:21:18;101709.19;;;23.99;37.11
56518;BME280;42419;48.760;2.322;2023-05-02T09:26:18;101715.38;;;24.01;37.81
56518;BME280;42419;48.760;2.322;2023-05-02T09:28:49;101714.44;;;24.02;38.09
56518;BME280;42419;48.760;2.322;2023-05-02T09:33:45;101715.38;;;24.01;37.51
56518;BME280;42419;48.760;2.322;2023-05-02T09:36:12;101719.03;;;24.00;37.62
56518;BME280;42419;48.760;2.322;2023-05-02T09:38:39;101727.09;;;24.00;37.60
56518;BME280;42419;48.760;2.322;2023-05-02T09:41:05;101734.28;;;23.99;37.58
56518;BME280;42419;48.760;2.322;2023-05-02T09:43:30;101713.94;;;23.92;37.94
56518;BME280;42419;48.760;2.322;2023-05-02T09:48:22;101732.53;;;23.98;37.96
56518;BME280;42419;48.760;2.322;2023-05-02T09:50:48;101725.34;;;23.99;37.95
56518;BME280;42419;48.760;2.322;2023-05-02T09:53:13;101730.72;;;23.99;38.07
56518;BME280;42419;48.760;2.322;2023-05-02T09:55:38;101722.81;;;23.94;38.02
56518;BME280;42419;48.760;2.322;2023-05-02T09:58:04;101746.84;;;23.99;37.72
56518;BME280;42419;48.760;2.322;2023-05-02T10:00:43;101751.41;;;23.97;38.25
56518;BME280;42419;48.760;2.322;2023-05-02T10:03:09;101731.06;;;23.90;37.99
56518;BME280;42419;48.760;2.322;2023-05-02T10:05:38;101747.03;;;23.94;38.18
56518;BME280;42419;48.760;2.322;2023-05-02T10:08:05;101752.38;;;23.96;37.82
56518;BME280;42419;48.760;2.322;2023-05-02T10:10:35;101744.53;;;23.90;37.59
56518;BME280;42419;48.760;2.322;2023-05-02T10:13:02;101744.34;;;23.94;37.66
56518;BME280;42419;48.760;2.322;2023-05-02T10:15:30;101743.50;;;23.92;37.97
56518;BME280;42419;48.760;2.322;2023-05-02T10:17:57;101747.09;;;23.93;37.96
56518;BME280;42419;48.760;2.322;2023-05-02T10:20:29;101741.84;;;23.90;37.85
56518;BME280;42419;48.760;2.322;2023-05-02T10:22:58;101740.91;;;23.91;37.70
56518;BME280;42419;48.760;2.322;2023-05-02T10:25:25;101743.50;;;23.92;37.78
56518;BME280;42419;48.760;2.322;2023-05-02T10:27:50;101734.59;;;23.92;37.42
56518;BME280;42419;48.760;2.322;2023-05-02T10:30:16;101745.34;;;23.92;37.31
56518;BME280;42419;48.760;2.322;2023-05-02T10:32:43;101746.19;;;23.92;38.03
56518;BME280;42419;48.760;2.322;2023-05-02T10:35:11;101743.50;;;23.92;37.81
56518;BME280;42419;48.760;2.322;2023-05-02T10:37:38;101746.19;;;23.92;37.64
56518;BME280;42419;48.760;2.322;2023-05-02T10:40:05;101752.47;;;23.93;38.11
56518;BME280;42419;48.760;2.322;2023-05-02T10:42:37;101750.75;;;23.92;37.91
56518;BME280;42419;48.760;2.322;2023-05-02T10:45:03;101745.28;;;23.93;37.88
56518;BME280;42419;48.760;2.322;2023-05-02T10:47:29;101748.84;;;23.94;37.75
56518;BME280;42419;48.760;2.322;2023-05-02T10:49:58;101754.22;;;23.94;37.72
56518;BME280;42419;48.760;2.322;2023-05-02T10:55:19;101752.41;;;23.94;38.06
56518;BME280;42419;48.760;2.322;2023-05-02T11:00:28;101750.59;;;23.95;37.93
56518;BME280;42419;48.760;2.322;2023-05-02T11:02:54;101732.16;;;23.84;37.92
56518;BME280;42419;48.760;2.322;2023-05-02T11:05:21;101739.75;;;23.96;37.86
56518;BME280;42419;48.760;2.322;2023-05-02T11:07:47;101744.28;;;23.96;37.63
56518;BME280;42419;48.760;2.322;2023-05-02T11:12:48;101735.44;;;23.92;37.63
56518;BME280;42419;48.760;2.322;2023-05-02T11:15:20;101742.41;;;23.98;37.96
56518;BME280;42419;48.760;2.322;2023-05-02T11:18:10;101732.53;;;23.98;37.78
56518;BME280;42419;48.760;2.322;2023-05-02T11:20:43;101737.03;;;23.98;37.52
56518;BME280;42419;48.760;2.322;2023-05-02T11:25:42;101737.03;;;23.98;37.77
56518;BME280;42419;48.760;2.322;2023-05-02T11:31:04;101747.22;;;23.90;35.90
56518;BME280;42419;48.760;2.322;2023-05-02T11:33:30;101751.88;;;23.85;35.62
56518;BME280;42419;48.760;2.322;2023-05-02T11:35:55;101744.81;;;23.82;35.98
56518;BME280;42419;48.760;2.322;2023-05-02T11:38:23;101752.22;;;23.76;35.70
56518;BME280;42419;48.760;2.322;2023-05-02T11:40:54;101675.94;;;23.33;35.67
56518;BME280;42419;48.760;2.322;2023-05-02T11:43:21;101745.25;;;23.70;35.89
56518;BME280;42419;48.760;2.322;2023-05-02T11:45:46;101754.91;;;23.76;35.39
56518;BME280;42419;48.760;2.322;2023-05-02T11:48:15;101751.28;;;23.77;35.90
56518;BME280;42419;48.760;2.322;2023-05-02T11:53:11;101745.88;;;23.78;36.86
56518;BME280;42419;48.760;2.322;2023-05-02T11:55:52;101740.66;;;23.73;35.65
56518;BME280;42419;48.760;2.322;2023-05-02T11:58:20;101749.53;;;23.76;36.16
56518;BME280;42419;48.760;2.322;2023-05-02T12:00:50;101757.66;;;23.74;36.02
56518;BME280;42419;48.760;2.322;2023-05-02T12:03:30;101754.22;;;23.70;34.96
56518;BME280;42419;48.760;2.322;2023-05-02T12:06:06;101749.97;;;23.65;35.93
56518;BME280;42419;48.760;2.322;2023-05-02T12:08:33;101739.56;;;23.56;35.92
56518;BME280;42419;48.760;2.322;2023-05-02T12:10:59;101766.16;;;23.63;35.50
56518;BME280;42419;48.760;2.322;2023-05-02T12:13:25;101746.03;;;23.50;35.29
56518;BME280;42419;48.760;2.322;2023-05-02T12:15:51;101764.44;;;23.61;35.60
56518;BME280;42419;48.760;2.322;2023-05-02T12:18:18;101767.03;;;23.64;36.13
56518;BME280;42419;48.760;2.322;2023-05-02T12:20:44;101764.38;;;23.62;35.52
56518;BME280;42419;48.760;2.322;2023-05-02T12:23:10;101775.00;;;23.65;35.98
56518;BME280;42419;48.760;2.322;2023-05-02T12:25:37;101777.81;;;23.62;35.63
56518;BME280;42419;48.760;2.322;2023-05-02T12:28:03;101767.91;;;23.64;36.17
56518;BME280;42419;48.760;2.322;2023-05-02T12:30:29;101768.88;;;23.62;35.40
56518;BME280;42419;48.760;2.322;2023-05-02T12:32:56;101773.63;;;23.55;35.46
56518;BME280;42419;48.760;2.322;2023-05-02T12:35:26;101773.56;;;23.57;35.49
56518;BME280;42419;48.760;2.322;2023-05-02T12:37:52;101772.78;;;23.53;34.89
56518;BME280;42419;48.760;2.322;2023-05-02T12:40:18;101778.19;;;23.53;35.47
56518;BME280;42419;48.760;2.322;2023-05-02T12:42:57;101788.03;;;23.53;36.39
56518;BME280;42419;48.760;2.322;2023-05-02T12:45:23;101782.78;;;23.50;35.54
56518;BME280;42419;48.760;2.322;2023-05-02T12:47:49;101788.34;;;23.45;35.35
56518;BME280;42419;48.760;2.322;2023-05-02T12:50:14;101794.59;;;23.46;35.36
56518;BME280;42419;48.760;2.322;2023-05-02T12:55:22;101798.38;;;23.40;35.31
56518;BME280;42419;48.760;2.322;2023-05-02T12:58:05;101790.28;;;23.42;35.85
56518;BME280;42419;48.760;2.322;2023-05-02T13:00:32;101802.84;;;23.41;35.94
56518;BME280;42419;48.760;2.322;2023-05-02T13:02:59;101800.25;;;23.38;35.86
56518;BME280;42419;48.760;2.322;2023-05-02T13:05:24;101800.25;;;23.38;35.81
56518;BME280;42419;48.760;2.322;2023-05-02T13:07:50;101813.75;;;23.37;35.50
56518;BME280;42419;48.760;2.322;2023-05-02T13:10:16;101804.81;;;23.36;35.56
56518;BME280;42419;48.760;2.322;2023-05-02T13:12:44;101807.53;;;23.35;36.02
56518;BME280;42419;48.760;2.322;2023-05-02T13:15:11;101819.16;;;23.35;35.65
56518;BME280;42419;48.760;2.322;2023-05-02T13:17:37;101798.91;;;23.25;35.79
56518;BME280;42419;48.760;2.322;2023-05-02T13:20:02;101813.78;;;23.35;35.65
56518;BME280;42419;48.760;2.322;2023-05-02T13:22:28;101808.41;;;23.35;36.02
56518;BME280;42419;48.760;2.322;2023-05-02T13:24:53;101808.50;;;23.34;35.94
56518;BME280;42419;48.760;2.322;2023-05-02T13:27:21;101821.84;;;23.35;35.96
56518;BME280;42419;48.760;2.322;2023-05-02T13:29:51;101818.28;;;23.35;35.58
56518;BME280;42419;48.760;2.322;2023-05-02T13:32:16;101812.03;;;23.34;35.93
56518;BME280;42419;48.760;2.322;2023-05-02T13:34:42;101818.38;;;23.33;35.78